RJTE(METAR)
10/21 04:00
METAR RJTE 201900Z 02009KT 9999 FEW030 15/10 Q1024 RMK 1CU030 A3026=
戻る
トップページへ戻る
IMOC Co,.Ltd.